Time;durP1;ratioP1;P1;durP2;ratioP2;P2;SDS_P1;SDS_P2;PMS_P1;PMS_P2;Temp;Humidity;BMP_temperature;BMP_pressure;BME280_temperature;BME280_humidity;BME280_pressure;Samples;Min_cycle;Max_cycle;Signal;HPM_P1;HPM_P2
2023/03/15 00:00:35;;;;;;;8.00;5.70;;;;;;;11.76;57.83;97589.70;223709;182;146752;-73
2023/03/15 00:05:55;;;;;;;7.80;4.80;;;;;;;11.63;58.06;97599.41;223835;182;138838;-74
2023/03/15 00:10:59;;;;;;;10.30;6.00;;;;;;;11.55;58.40;97614.09;223841;182;136726;-74
2023/03/15 00:16:03;;;;;;;10.30;6.00;;;;;;;11.41;58.64;97634.95;223875;182;147168;-74
2023/03/15 00:21:07;;;;;;;4.90;3.30;;;;;;;11.32;58.66;97660.89;223724;182;138375;-73
2023/03/15 00:26:11;;;;;;;3.20;2.00;;;;;;;11.10;57.96;97680.02;223778;182;137611;-73
2023/03/15 00:31:15;;;;;;;3.20;1.90;;;;;;;10.79;58.28;97705.56;223764;183;148382;-74
2023/03/15 00:36:23;;;;;;;4.90;2.30;;;;;;;10.55;59.01;97720.16;223821;182;139924;-73
2023/03/15 00:41:27;;;;;;;3.70;2.70;;;;;;;10.43;59.44;97747.05;223747;182;136796;-73
2023/03/15 00:46:30;;;;;;;4.10;3.10;;;;;;;10.36;59.36;97774.73;223731;183;146830;-74
2023/03/15 00:51:36;;;;;;;6.40;5.90;;;;;;;10.18;59.70;97800.27;223761;182;139461;-74
2023/03/15 00:56:40;;;;;;;8.80;7.40;;;;;;;9.91;60.16;97827.63;223874;182;136780;-74
2023/03/15 01:01:44;;;;;;;8.60;7.90;;;;;;;9.62;61.14;97825.80;223721;182;147569;-74
2023/03/15 01:06:53;;;;;;;9.80;8.90;;;;;;;9.47;61.49;97847.30;223737;183;138481;-72
2023/03/15 01:11:57;;;;;;;10.40;9.30;;;;;;;9.35;61.51;97866.11;223900;182;137048;-72
2023/03/15 01:17:01;;;;;;;10.10;9.20;;;;;;;9.20;61.29;97879.61;223748;182;147811;-73
2023/03/15 01:22:04;;;;;;;8.20;7.40;;;;;;;9.03;60.98;97894.69;223824;182;139783;-73
2023/03/15 01:27:08;;;;;;;3.90;3.50;;;;;;;8.87;60.95;97915.33;223760;182;136943;-72
2023/03/15 01:32:11;;;;;;;1.50;1.30;;;;;;;8.76;60.58;97928.36;223586;182;148073;-74
2023/03/15 01:37:16;;;;;;;1.20;1.10;;;;;;;8.61;60.47;97941.30;223695;182;138787;-75
2023/03/15 01:42:20;;;;;;;0.90;0.80;;;;;;;8.30;59.39;97966.08;223669;182;137087;-75
2023/03/15 01:47:24;;;;;;;1.00;0.60;;;;;;;7.97;59.00;97986.34;223766;181;147367;-75
2023/03/15 01:52:34;;;;;;;1.30;0.80;;;;;;;7.78;57.95;98003.55;223767;182;138890;-76
2023/03/15 01:57:54;;;;;;;2.70;0.60;;;;;;;7.53;56.70;98014.75;223895;182;136995;-75
2023/03/15 02:03:16;;;;;;;0.80;0.60;;;;;;;7.35;56.61;98024.23;223808;182;147781;-74
2023/03/15 02:08:26;;;;;;;0.80;0.50;;;;;;;7.19;56.39;98028.59;223613;182;138423;-74
2023/03/15 02:13:34;;;;;;;3.20;0.50;;;;;;;7.11;56.36;98027.55;223696;183;136104;-75
2023/03/15 02:18:41;;;;;;;1.10;0.50;;;;;;;7.01;56.23;98045.45;223642;183;147682;-75
2023/03/15 02:23:50;;;;;;;0.70;0.60;;;;;;;6.92;56.41;98068.09;223672;182;138752;-74
2023/03/15 02:28:54;;;;;;;1.40;0.90;;;;;;;6.89;56.30;98073.39;223661;182;136338;-75
2023/03/15 02:33:58;;;;;;;1.30;0.80;;;;;;;6.83;56.14;98084.86;223740;183;148034;-74
2023/03/15 02:39:16;;;;;;;1.20;0.70;;;;;;;6.79;56.34;98094.09;223719;183;139672;-75
2023/03/15 02:44:28;;;;;;;1.10;0.80;;;;;;;6.74;56.65;98101.81;223723;183;136427;-74
2023/03/15 02:49:37;;;;;;;1.20;0.80;;;;;;;6.63;57.20;98093.84;223712;182;147615;-75
2023/03/15 02:54:42;;;;;;;5.00;1.10;;;;;;;6.58;57.51;98091.70;223630;183;139559;-74
2023/03/15 02:59:46;;;;;;;1.30;0.70;;;;;;;6.52;57.82;98100.87;223607;182;136353;-74
2023/03/15 03:04:51;;;;;;;1.80;1.00;;;;;;;6.47;57.61;98116.88;223638;182;147247;-73
2023/03/15 03:09:59;;;;;;;3.30;0.90;;;;;;;6.42;57.78;98127.52;223744;183;138092;-75
2023/03/15 03:15:07;;;;;;;2.50;1.30;;;;;;;6.50;57.62;98139.75;223770;183;136336;-74
2023/03/15 03:20:12;;;;;;;3.60;1.50;;;;;;;6.47;57.77;98165.13;223656;183;147601;-74
2023/03/15 03:25:20;;;;;;;2.10;1.30;;;;;;;6.48;58.20;98173.90;223601;182;138820;-72
2023/03/15 03:30:24;;;;;;;3.90;1.80;;;;;;;6.48;58.26;98175.65;223670;182;136403;-74
2023/03/15 03:35:28;;;;;;;3.10;1.60;;;;;;;6.42;58.18;98176.17;223645;182;147518;-73
2023/03/15 03:40:31;;;;;;;4.00;1.70;;;;;;;6.39;58.04;98174.05;223716;182;138406;-73
2023/03/15 03:45:35;;;;;;;4.90;2.10;;;;;;;6.36;58.23;98177.42;223772;182;136673;-73
2023/03/15 03:50:40;;;;;;;4.10;2.10;;;;;;;6.39;58.31;98189.39;223601;182;147621;-73
2023/03/15 03:55:45;;;;;;;4.20;1.90;;;;;;;6.40;58.46;98188.59;223643;183;138941;-73
2023/03/15 04:00:55;;;;;;;3.40;2.00;;;;;;;6.45;58.54;98196.62;223688;183;136304;-74
2023/03/15 04:05:59;;;;;;;4.50;2.00;;;;;;;6.50;58.24;98200.05;223694;182;147660;-74
2023/03/15 04:11:04;;;;;;;7.60;2.20;;;;;;;6.38;58.22;98209.86;223679;182;139207;-73
2023/03/15 04:16:10;;;;;;;7.10;2.20;;;;;;;6.31;58.09;98221.73;223722;182;137168;-74
2023/03/15 04:21:30;;;;;;;5.50;2.00;;;;;;;6.32;57.79;98227.48;223627;183;149157;-73
2023/03/15 04:26:49;;;;;;;4.70;1.80;;;;;;;6.26;57.57;98231.69;223660;183;139097;-72
2023/03/15 04:32:02;;;;;;;6.40;2.20;;;;;;;6.30;57.27;98234.09;223733;182;137453;-73
2023/03/15 04:37:21;;;;;;;5.50;1.80;;;;;;;6.35;57.13;98241.57;223592;183;147550;-73
2023/03/15 04:42:55;;;;;;;4.80;1.90;;;;;;;6.34;56.89;98244.29;223611;182;138597;-74
2023/03/15 04:48:16;;;;;;;4.90;2.00;;;;;;;6.24;56.81;98248.91;223675;182;136833;-73
2023/03/15 04:53:42;;;;;;;3.90;2.00;;;;;;;6.24;56.66;98262.63;223547;183;146803;-74
2023/03/15 04:59:11;;;;;;;7.70;2.10;;;;;;;6.27;56.40;98269.71;223646;182;138427;-75
2023/03/15 05:04:30;;;;;;;3.70;1.70;;;;;;;6.29;56.03;98278.56;223189;183;136623;-74
2023/03/15 05:09:57;;;;;;;7.40;2.30;;;;;;;6.24;55.91;98282.58;223224;182;147758;-74
2023/03/15 05:15:22;;;;;;;7.10;2.10;;;;;;;6.17;56.02;98289.11;223651;182;138784;-73
2023/03/15 05:20:49;;;;;;;5.60;2.00;;;;;;;6.18;55.90;98291.52;223578;184;136282;-73
2023/03/15 05:26:23;;;;;;;7.00;1.90;;;;;;;6.17;55.79;98299.30;223160;182;147547;-73
2023/03/15 05:31:44;;;;;;;8.80;2.10;;;;;;;6.12;55.22;98306.30;223674;182;139209;-75
2023/03/15 05:37:05;;;;;;;30.10;20.70;;;;;;;6.16;55.39;98320.67;223654;182;136472;-73
2023/03/15 05:42:37;;;;;;;10.60;3.30;;;;;;;6.25;55.04;98325.29;223653;182;147449;-76
2023/03/15 05:47:55;;;;;;;8.30;2.30;;;;;;;6.25;55.25;98339.58;223621;183;139485;-73
2023/03/15 05:53:09;;;;;;;7.00;2.00;;;;;;;6.29;54.56;98354.83;222653;183;136743;-73
2023/03/15 05:58:20;;;;;;;8.80;2.20;;;;;;;6.43;53.98;98356.68;223697;182;147362;-73
2023/03/15 06:03:40;;;;;;;6.70;2.20;;;;;;;6.52;53.50;98367.79;223599;182;138197;-73
2023/03/15 06:08:49;;;;;;;71.20;43.40;;;;;;;6.42;54.77;98386.37;223654;183;137624;-74
2023/03/15 06:13:53;;;;;;;14.90;7.90;;;;;;;6.41;53.60;98392.07;223695;183;148019;-74
2023/03/15 06:19:12;;;;;;;9.80;3.20;;;;;;;6.40;53.42;98395.11;223744;183;139044;-77
2023/03/15 06:24:16;;;;;;;9.70;2.50;;;;;;;6.47;53.01;98403.89;223715;183;136708;-76
2023/03/15 06:29:21;;;;;;;10.80;2.60;;;;;;;6.43;52.86;98419.41;223626;182;147450;-75
2023/03/15 06:34:25;;;;;;;7.30;2.20;;;;;;;6.45;52.59;98428.65;223571;183;141810;-75
2023/03/15 06:39:29;;;;;;;6.70;2.50;;;;;;;6.44;52.32;98439.98;223784;183;137535;-75
2023/03/15 06:44:33;;;;;;;7.20;2.40;;;;;;;6.44;52.50;98446.01;223191;182;146863;-75
2023/03/15 06:49:42;;;;;;;7.60;2.30;;;;;;;6.45;52.55;98446.10;223622;182;141951;-76
2023/03/15 06:54:46;;;;;;;6.60;2.40;;;;;;;6.44;52.78;98458.48;223664;183;137270;-79
2023/03/15 06:59:52;;;;;;;13.60;7.20;;;;;;;6.49;52.52;98462.81;223605;183;146948;-77
2023/03/15 07:04:56;;;;;;;11.50;4.10;;;;;;;6.37;53.77;98469.77;223693;182;137541;-78
2023/03/15 07:10:01;;;;;;;5.30;2.60;;;;;;;6.42;53.12;98474.29;223713;183;137193;-78
2023/03/15 07:15:05;;;;;;;9.20;2.80;;;;;;;6.45;52.60;98474.83;223730;182;148175;-78
2023/03/15 07:20:10;;;;;;;8.60;2.40;;;;;;;6.44;52.57;98471.88;223611;182;138416;-78
2023/03/15 07:25:13;;;;;;;11.40;2.70;;;;;;;6.42;52.53;98478.33;223660;182;137066;-78
2023/03/15 07:30:19;;;;;;;10.90;2.60;;;;;;;6.51;52.47;98479.80;223740;182;147281;-79
2023/03/15 07:35:22;;;;;;;5.60;2.40;;;;;;;6.53;52.03;98488.15;223554;183;138835;-75
2023/03/15 07:40:25;;;;;;;8.80;2.60;;;;;;;6.62;51.92;98495.55;223467;182;136512;-75
2023/03/15 07:45:29;;;;;;;111.80;69.30;;;;;;;6.66;52.03;98494.10;223836;183;148083;-70
2023/03/15 07:50:33;;;;;;;9.40;3.80;;;;;;;6.77;52.07;98499.83;223774;182;138807;-74
2023/03/15 07:55:37;;;;;;;9.10;2.80;;;;;;;6.83;51.56;98500.55;223739;183;136613;-73
2023/03/15 08:00:41;;;;;;;11.30;2.90;;;;;;;6.90;51.24;98506.70;223572;183;147825;-74
2023/03/15 08:05:44;;;;;;;17.40;2.90;;;;;;;7.02;50.60;98518.03;223094;182;138316;-75
2023/03/15 08:10:48;;;;;;;8.30;2.80;;;;;;;7.08;49.99;98525.42;223703;183;136865;-75
2023/03/15 08:15:57;;;;;;;10.30;3.10;;;;;;;7.02;49.74;98536.89;223741;182;147495;-75
2023/03/15 08:21:01;;;;;;;142.20;90.60;;;;;;;7.01;49.97;98539.45;223701;183;275773;-76
2023/03/15 08:26:05;;;;;;;11.40;4.50;;;;;;;7.07;49.92;98547.94;223472;183;137221;-75
2023/03/15 08:31:09;;;;;;;11.60;2.90;;;;;;;7.09;49.61;98549.05;223502;183;147590;-73
2023/03/15 08:36:12;;;;;;;10.70;2.70;;;;;;;7.17;49.21;98544.37;223404;184;139061;-73
2023/03/15 08:41:16;;;;;;;8.90;2.50;;;;;;;7.25;49.13;98551.13;223493;184;137353;-75
2023/03/15 08:46:20;;;;;;;5.60;2.50;;;;;;;7.16;49.09;98541.25;223444;184;147512;-75
2023/03/15 08:51:25;;;;;;;6.40;2.50;;;;;;;7.02;49.27;98542.34;223625;184;138901;-75
2023/03/15 08:56:31;;;;;;;10.80;4.10;;;;;;;7.08;49.31;98545.02;223519;184;136452;-73
2023/03/15 09:01:35;;;;;;;8.90;2.70;;;;;;;7.19;48.37;98556.08;223507;184;147747;-73
2023/03/15 09:06:39;;;;;;;9.20;2.80;;;;;;;7.21;47.99;98567.59;223429;184;149434;-73
2023/03/15 09:11:44;;;;;;;8.80;2.80;;;;;;;7.19;47.70;98571.75;223532;184;136727;-73
2023/03/15 09:16:47;;;;;;;9.40;2.50;;;;;;;7.20;47.47;98578.22;223454;182;147545;-73
2023/03/15 09:21:51;;;;;;;7.80;2.60;;;;;;;7.20;46.70;98587.05;223468;184;139107;-73
2023/03/15 09:26:55;;;;;;;7.80;2.60;;;;;;;7.19;46.65;98595.59;223660;184;136653;-75
2023/03/15 09:32:00;;;;;;;9.90;2.80;;;;;;;7.25;46.93;98595.64;223603;184;147894;-72
2023/03/15 09:37:04;;;;;;;9.50;2.30;;;;;;;7.24;46.53;98596.17;223177;183;138335;-74
2023/03/15 09:42:48;;;;;;;10.40;2.30;;;;;;;7.19;46.23;98599.80;223643;183;136905;-73
2023/03/15 09:48:04;;;;;;;7.00;2.20;;;;;;;7.26;46.27;98593.96;223731;182;148058;-73
2023/03/15 09:53:26;;;;;;;8.90;2.10;;;;;;;7.25;46.26;98601.81;221636;183;139564;-72
2023/03/15 09:58:31;;;;;;;6.90;2.00;;;;;;;7.29;45.69;98607.38;223488;182;136720;-72
2023/03/15 10:03:46;;;;;;;13.30;2.50;;;;;;;7.31;45.45;98609.73;223669;182;146348;-73
2023/03/15 10:08:55;;;;;;;;;;;;;;;7.36;45.23;98614.05;223663;183;140281;-75
2023/03/15 10:14:46;;;;;;;8.90;2.10;;;;;;;7.35;44.71;98619.38;223725;183;135386;-74
2023/03/15 10:19:54;;;;;;;6.70;2.00;;;;;;;7.36;44.64;98619.52;223725;182;147765;-74
2023/03/15 10:25:24;;;;;;;10.20;2.00;;;;;;;7.29;44.25;98627.52;223653;183;139519;-75
2023/03/15 10:30:32;;;;;;;7.70;2.30;;;;;;;7.25;44.41;98630.35;223816;183;137040;-71
2023/03/15 10:35:37;;;;;;;6.80;2.20;;;;;;;7.23;44.94;98639.29;223557;183;148171;-76
2023/03/15 10:40:52;;;;;;;4.40;1.80;;;;;;;7.31;44.72;98646.77;223550;182;138164;-76
2023/03/15 10:46:10;;;;;;;10.00;2.00;;;;;;;7.38;44.58;98649.23;223635;183;136488;-73
2023/03/15 10:51:23;;;;;;;8.40;2.10;;;;;;;7.36;44.58;98648.44;223699;183;147076;-74
2023/03/15 10:56:30;;;;;;;6.60;2.30;;;;;;;7.34;44.04;98650.16;222729;183;137993;-74
2023/03/15 11:01:37;;;;;;;9.00;2.00;;;;;;;7.37;44.10;98650.70;223719;183;138008;-74
2023/03/15 11:06:45;;;;;;;5.50;1.90;;;;;;;7.35;43.92;98652.94;223706;183;147535;-73
2023/03/15 11:11:53;;;;;;;6.60;2.10;;;;;;;7.43;43.66;98654.59;223363;182;139454;-74
2023/03/15 11:16:58;;;;;;;7.50;1.90;;;;;;;7.64;43.00;98656.95;223640;182;136894;-75
2023/03/15 11:22:02;;;;;;;8.80;2.30;;;;;;;7.71;42.77;98651.44;223670;182;147162;-73
2023/03/15 11:27:13;;;;;;;5.90;2.00;;;;;;;7.81;41.96;98647.69;223749;182;139667;-72
2023/03/15 11:32:22;;;;;;;7.20;2.40;;;;;;;7.85;42.65;98646.05;223638;183;136825;-74
2023/03/15 11:37:47;;;;;;;6.70;2.10;;;;;;;7.90;41.93;98638.36;223681;183;147685;-75
2023/03/15 11:43:07;;;;;;;6.90;1.90;;;;;;;7.83;41.74;98645.28;223621;183;138987;-72
2023/03/15 11:48:17;;;;;;;6.80;2.10;;;;;;;7.90;41.75;98649.32;223763;179;137242;-73
2023/03/15 11:53:26;;;;;;;9.90;2.50;;;;;;;7.93;41.30;98660.98;223730;183;147417;-72
2023/03/15 11:58:43;;;;;;;5.60;2.10;;;;;;;8.01;41.43;98662.13;223092;182;138214;-73
2023/03/15 12:03:48;;;;;;;6.00;1.80;;;;;;;8.02;40.86;98661.33;223783;183;136858;-73
2023/03/15 12:08:53;;;;;;;4.00;1.80;;;;;;;8.08;41.38;98653.39;223675;182;148217;-74
2023/03/15 12:13:57;;;;;;;;;;;;;;;8.22;41.66;98657.15;223398;183;138412;-73
2023/03/15 12:19:09;;;;;;;4.70;1.90;;;;;;;8.29;41.20;98656.55;223670;182;131072;-73
2023/03/15 12:24:26;;;;;;;2.90;1.60;;;;;;;8.38;40.48;98655.92;223691;183;147386;-74
2023/03/15 12:29:33;;;;;;;5.70;2.00;;;;;;;8.43;41.04;98652.59;223727;182;138717;-74
2023/03/15 12:35:07;;;;;;;5.60;2.20;;;;;;;8.58;41.18;98649.23;223519;182;136798;-74
2023/03/15 12:40:21;;;;;;;5.30;1.90;;;;;;;8.78;41.20;98653.34;223651;182;147448;-73
2023/03/15 12:45:26;;;;;;;5.70;2.00;;;;;;;8.79;39.88;98652.38;223699;182;139104;-73
2023/03/15 12:50:46;;;;;;;5.80;1.80;;;;;;;8.91;39.04;98653.03;223670;183;136665;-73
2023/03/15 12:55:51;;;;;;;7.70;2.60;;;;;;;8.87;38.32;98661.05;223646;183;147710;-73
2023/03/15 13:01:15;;;;;;;5.40;2.10;;;;;;;8.87;38.55;98664.61;223598;182;138617;-73
2023/03/15 13:06:34;;;;;;;4.00;2.00;;;;;;;8.85;38.89;98663.17;223692;182;136949;-73
2023/03/15 13:12:27;;;;;;;6.70;1.90;;;;;;;8.70;38.51;98665.64;223590;183;147055;-74
2023/03/15 13:17:48;;;;;;;5.30;1.90;;;;;;;8.60;38.69;98669.93;223269;183;138832;-73
2023/03/15 13:23:25;;;;;;;9.00;2.10;;;;;;;8.64;38.96;98668.70;223622;183;137616;-73
2023/03/15 13:28:38;;;;;;;6.90;2.00;;;;;;;8.69;38.95;98667.64;223650;183;148011;-73
2023/03/15 13:33:49;;;;;;;5.30;2.00;;;;;;;8.75;38.64;98667.65;223671;182;139005;-73
2023/03/15 13:38:56;;;;;;;5.10;1.90;;;;;;;8.87;38.38;98673.48;223607;183;136526;-74
2023/03/15 13:44:04;;;;;;;6.80;2.10;;;;;;;8.87;38.01;98684.79;223700;183;147537;-73
2023/03/15 13:49:12;;;;;;;6.30;2.30;;;;;;;8.80;38.60;98694.98;223577;183;139609;-73
2023/03/15 13:54:18;;;;;;;4.90;2.10;;;;;;;8.78;38.44;98704.45;223638;183;137323;-73
2023/03/15 13:59:31;;;;;;;9.70;2.40;;;;;;;8.79;38.26;98706.35;223678;182;147865;-73
2023/03/15 14:04:37;;;;;;;5.70;2.30;;;;;;;8.84;37.94;98714.88;223693;183;138756;-72
2023/03/15 14:09:41;;;;;;;10.30;2.80;;;;;;;8.83;38.24;98720.21;223692;184;136727;-72
2023/03/15 14:14:50;;;;;;;6.20;2.30;;;;;;;8.90;38.24;98724.02;223609;182;147661;-72
2023/03/15 14:20:05;;;;;;;7.00;2.30;;;;;;;8.90;38.76;98730.97;222824;182;138442;-74
2023/03/15 14:25:21;;;;;;;4.40;2.20;;;;;;;8.80;38.35;98734.23;223634;183;136885;-74
2023/03/15 14:30:24;;;;;;;8.20;4.30;;;;;;;8.68;38.66;98736.55;223580;182;266958;-74
2023/03/15 14:35:31;;;;;;;7.10;2.70;;;;;;;8.64;38.85;98741.54;223588;182;138482;-75
2023/03/15 14:40:37;;;;;;;5.90;2.00;;;;;;;8.53;38.42;98745.53;223636;182;137052;-75
2023/03/15 14:45:47;;;;;;;7.40;2.10;;;;;;;8.41;37.72;98742.66;223668;182;147241;-74
2023/03/15 14:50:51;;;;;;;8.20;2.80;;;;;;;8.29;38.18;98742.10;223623;183;138311;-74
2023/03/15 14:55:54;;;;;;;7.20;2.40;;;;;;;8.27;39.15;98748.56;223735;183;136708;-74
2023/03/15 15:00:58;;;;;;;10.20;2.70;;;;;;;8.30;38.91;98753.88;223580;183;147120;-74
2023/03/15 15:06:03;;;;;;;6.20;2.60;;;;;;;8.26;38.86;98762.41;223697;182;138969;-74
2023/03/15 15:17:18;;;;;;;8.30;2.50;;;;;;;8.15;38.67;98775.61;223709;183;258325;-74
2023/03/15 15:22:22;;;;;;;8.40;3.40;;;;;;;8.08;39.13;98780.27;223669;183;139496;-74
2023/03/15 15:27:26;;;;;;;6.90;2.80;;;;;;;8.04;39.80;98787.18;223816;183;136396;-73
2023/03/15 15:32:32;;;;;;;7.40;2.80;;;;;;;8.10;39.69;98788.98;223696;182;147739;-72
2023/03/15 15:37:36;;;;;;;8.60;2.70;;;;;;;8.09;39.23;98794.31;223745;182;138859;-73
2023/03/15 15:42:40;;;;;;;9.80;3.00;;;;;;;8.02;39.06;98788.16;223674;183;136614;-73
2023/03/15 15:47:44;;;;;;;9.50;3.00;;;;;;;8.00;39.38;98790.55;223729;179;148185;-74
2023/03/15 15:52:50;;;;;;;7.80;3.00;;;;;;;8.02;39.39;98795.57;223685;183;138706;-73
2023/03/15 15:57:54;;;;;;;6.00;2.70;;;;;;;8.02;39.91;98801.95;223692;183;136660;-72
2023/03/15 16:02:58;;;;;;;8.20;2.60;;;;;;;7.82;39.99;98805.72;223667;183;148362;-73
2023/03/15 16:08:03;;;;;;;9.30;3.20;;;;;;;7.69;40.29;98812.44;223714;183;141250;-76
2023/03/15 16:13:10;;;;;;;8.00;3.30;;;;;;;7.61;40.22;98815.10;223739;182;136882;-73
2023/03/15 16:18:13;;;;;;;9.60;3.70;;;;;;;7.60;40.65;98822.08;223330;183;146853;-73
2023/03/15 16:23:21;;;;;;;9.00;3.80;;;;;;;7.66;40.78;98826.70;223628;183;139171;-76
2023/03/15 16:28:25;;;;;;;9.70;3.50;;;;;;;7.60;40.76;98832.67;223719;182;136627;-75
2023/03/15 16:33:28;;;;;;;15.10;4.60;;;;;;;7.54;41.02;98837.73;223801;182;147921;-74
2023/03/15 16:38:32;;;;;;;9.30;3.60;;;;;;;7.52;41.06;98839.10;223418;183;138560;-74
2023/03/15 16:43:35;;;;;;;9.60;3.70;;;;;;;7.55;41.33;98847.40;223519;183;136724;-74
2023/03/15 16:55:04;;;;;;;12.40;4.50;;;;;;;7.53;41.49;98859.19;223656;182;138829;-75
2023/03/15 17:00:15;;;;;;;10.80;4.70;;;;;;;7.51;41.47;98867.77;223583;183;136723;-74
2023/03/15 17:05:19;;;;;;;8.70;4.30;;;;;;;7.52;41.61;98877.39;223651;183;147639;-73
2023/03/15 17:10:27;;;;;;;10.30;4.40;;;;;;;7.48;41.65;98888.37;222764;182;139365;-73
2023/03/15 17:15:31;;;;;;;12.60;5.10;;;;;;;7.45;41.77;98901.77;223670;183;136515;-73
2023/03/15 17:20:34;;;;;;;14.00;5.10;;;;;;;7.43;41.92;98907.01;223638;183;146836;-72
2023/03/15 17:25:38;;;;;;;12.80;5.60;;;;;;;7.35;41.96;98909.70;223658;183;139031;-71
2023/03/15 17:30:41;;;;;;;14.70;6.30;;;;;;;7.24;42.03;98910.77;223506;183;137141;-73
2023/03/15 17:35:52;;;;;;;13.60;6.80;;;;;;;7.16;42.49;98910.81;223656;183;147676;-75
2023/03/15 17:40:56;;;;;;;14.60;7.30;;;;;;;7.10;42.85;98922.76;223629;182;139161;-71
2023/03/15 17:45:59;;;;;;;19.90;8.70;;;;;;;7.08;43.11;98932.04;223657;182;136783;-73
2023/03/15 17:51:04;;;;;;;16.60;8.20;;;;;;;7.06;43.08;98935.14;223723;183;147206;-74
2023/03/15 17:56:08;;;;;;;20.50;8.50;;;;;;;7.04;43.03;98939.33;223628;182;138905;-73
2023/03/15 18:01:18;;;;;;;20.90;8.60;;;;;;;7.01;43.18;98947.23;223576;182;138146;-72
2023/03/15 18:06:26;;;;;;;18.10;8.10;;;;;;;6.98;43.19;98944.56;223553;183;148224;-71
2023/03/15 18:11:39;;;;;;;26.80;11.00;;;;;;;7.03;43.68;98945.68;223651;182;139087;-72
2023/03/15 18:16:43;;;;;;;22.80;8.80;;;;;;;7.02;43.04;98943.46;223585;182;137695;-72
2023/03/15 18:21:50;;;;;;;16.80;7.10;;;;;;;6.97;42.93;98938.92;223664;183;146813;-72
2023/03/15 18:26:54;;;;;;;74.90;43.90;;;;;;;6.94;44.08;98936.42;223647;183;139217;-69
2023/03/15 18:31:57;;;;;;;18.00;7.70;;;;;;;6.99;43.76;98937.46;223615;182;137323;-70
2023/03/15 18:37:01;;;;;;;19.80;7.40;;;;;;;6.92;43.70;98934.26;223614;182;147975;-73
2023/03/15 18:42:04;;;;;;;16.80;7.70;;;;;;;6.84;44.05;98934.29;223595;182;139615;-70
2023/03/15 18:47:08;;;;;;;14.10;6.70;;;;;;;6.77;43.81;98936.54;223630;183;137748;-68
2023/03/15 18:52:14;;;;;;;14.60;6.90;;;;;;;6.76;43.79;98944.35;223524;182;146792;-67
2023/03/15 18:57:19;;;;;;;50.10;26.20;;;;;;;6.75;44.22;98942.81;223584;183;138400;-66
2023/03/15 19:02:22;;;;;;;33.50;17.30;;;;;;;6.87;44.88;98946.67;223579;182;138004;-67
2023/03/15 19:07:27;;;;;;;22.30;8.50;;;;;;;7.00;44.11;98952.89;223622;182;147113;-68
2023/03/15 19:12:30;;;;;;;18.70;8.00;;;;;;;6.97;43.78;98957.63;223518;182;139124;-68
2023/03/15 19:17:33;;;;;;;18.90;8.10;;;;;;;6.94;43.91;98960.08;223575;182;136592;-68
2023/03/15 19:22:38;;;;;;;21.60;8.10;;;;;;;6.88;43.91;98965.64;223677;182;148187;-69
2023/03/15 19:27:42;;;;;;;21.40;9.70;;;;;;;6.84;43.90;98967.08;223690;182;139961;-68
2023/03/15 19:32:46;;;;;;;23.40;10.40;;;;;;;6.81;44.03;98970.58;223666;182;137399;-67
2023/03/15 19:37:50;;;;;;;25.50;12.20;;;;;;;6.83;44.17;98974.52;223542;182;148201;-69
2023/03/15 19:42:54;;;;;;;32.00;17.00;;;;;;;6.77;44.35;98976.23;223548;183;139656;-68
2023/03/15 19:47:57;;;;;;;40.60;18.60;;;;;;;6.82;45.58;98978.29;223663;182;137800;-68
2023/03/15 19:53:01;;;;;;;30.80;14.20;;;;;;;6.90;44.88;98981.94;223668;182;148808;-68
2023/03/15 19:58:04;;;;;;;31.30;15.90;;;;;;;6.83;44.73;98990.03;223626;182;138789;-77
2023/03/15 20:03:08;;;;;;;35.20;15.60;;;;;;;6.77;44.94;98992.45;223826;183;137147;-68
2023/03/15 20:08:12;;;;;;;33.90;16.40;;;;;;;6.68;45.03;98995.33;223742;182;147261;-69
2023/03/15 20:13:15;;;;;;;36.60;16.30;;;;;;;6.62;45.30;99001.08;223621;182;140286;-69
2023/03/15 20:18:18;;;;;;;32.00;14.70;;;;;;;6.60;45.45;99001.91;223709;182;137237;-69
2023/03/15 20:23:22;;;;;;;37.10;15.80;;;;;;;6.54;45.57;98998.65;223631;182;147123;-69
2023/03/15 20:28:25;;;;;;;35.20;16.60;;;;;;;6.46;45.89;99005.36;223624;182;139666;-68
2023/03/15 20:33:30;;;;;;;33.00;16.70;;;;;;;6.41;46.26;99017.92;223773;182;136862;-68
2023/03/15 20:38:35;;;;;;;35.30;16.50;;;;;;;6.38;46.20;99021.92;223551;183;147637;-68
2023/03/15 20:43:39;;;;;;;;;;;;;;;6.35;46.45;99019.77;223645;183;138991;-68
2023/03/15 20:48:42;;;;;;;32.90;16.50;;;;;;;6.25;46.61;99016.51;223775;182;131125;-68
2023/03/15 20:53:46;;;;;;;34.70;17.20;;;;;;;6.19;46.78;99027.55;223646;182;148716;-68
2023/03/15 20:58:50;;;;;;;39.40;17.40;;;;;;;6.12;47.11;99027.31;223605;183;139551;-69
2023/03/15 21:03:54;;;;;;;36.40;17.90;;;;;;;6.10;47.29;99027.06;223619;182;137620;-67
2023/03/15 21:08:59;;;;;;;38.90;18.90;;;;;;;6.04;47.72;99037.90;223627;183;148219;-67
2023/03/15 21:14:02;;;;;;;41.20;19.40;;;;;;;5.98;47.96;99040.79;223650;182;139994;-67
2023/03/15 21:19:05;;;;;;;38.60;18.10;;;;;;;5.97;47.97;99050.73;223654;183;137932;-67
2023/03/15 21:24:11;;;;;;;39.70;18.80;;;;;;;5.94;47.94;99054.17;223715;182;149021;-67
2023/03/15 21:29:14;;;;;;;41.70;19.60;;;;;;;5.90;48.13;99055.18;223612;183;138321;-66
2023/03/15 21:34:18;;;;;;;44.00;20.60;;;;;;;5.82;48.61;99063.80;223657;182;137427;-66
2023/03/15 21:39:21;;;;;;;43.30;21.80;;;;;;;5.76;48.94;99067.91;223724;183;147294;-66
2023/03/15 21:44:24;;;;;;;44.90;21.20;;;;;;;5.75;49.02;99069.56;223641;183;138807;-66
2023/03/15 21:49:28;;;;;;;50.80;22.30;;;;;;;5.73;49.07;99068.05;223605;183;137222;-69
2023/03/15 21:54:31;;;;;;;48.30;23.40;;;;;;;5.68;49.56;99070.89;223592;182;148098;-69
2023/03/15 21:59:34;;;;;;;52.00;23.60;;;;;;;5.63;49.75;99073.58;223661;183;139087;-66
2023/03/15 22:04:37;;;;;;;48.80;23.60;;;;;;;5.61;49.69;99075.94;223697;182;136684;-66
2023/03/15 22:09:42;;;;;;;45.30;22.40;;;;;;;5.61;49.90;99081.41;223825;182;147258;-67
2023/03/15 22:14:45;;;;;;;46.60;22.00;;;;;;;5.61;49.79;99091.44;223602;183;140310;-67
2023/03/15 22:19:58;;;;;;;44.90;20.20;;;;;;;5.61;49.73;99101.45;223675;182;137702;-67
2023/03/15 22:25:02;;;;;;;38.40;19.00;;;;;;;5.62;49.66;99102.99;223684;182;148716;-67
2023/03/15 22:30:06;;;;;;;40.80;20.60;;;;;;;5.65;49.62;99102.86;223637;182;139950;-67
2023/03/15 22:35:12;;;;;;;42.10;19.30;;;;;;;5.65;49.68;99107.09;223652;183;137913;-67
2023/03/15 22:40:15;;;;;;;35.00;15.90;;;;;;;5.60;49.82;99108.92;223657;182;148324;-68
2023/03/15 22:45:20;;;;;;;31.70;14.80;;;;;;;5.58;49.90;99113.35;223681;182;139398;-68
2023/03/15 22:50:23;;;;;;;27.10;12.60;;;;;;;5.58;50.04;99119.35;223730;182;137402;-66
2023/03/15 22:55:26;;;;;;;30.60;11.50;;;;;;;5.57;50.14;99121.86;223641;182;147093;-68
2023/03/15 23:00:30;;;;;;;23.40;10.30;;;;;;;5.58;50.17;99127.62;223613;183;138657;-67
2023/03/15 23:05:34;;;;;;;21.60;9.40;;;;;;;5.58;50.42;99134.14;223654;182;137451;-67
2023/03/15 23:10:41;;;;;;;18.20;8.50;;;;;;;5.61;50.49;99137.54;223609;182;147282;-67
2023/03/15 23:15:46;;;;;;;23.50;10.10;;;;;;;5.58;50.46;99140.66;223712;182;139683;-68
2023/03/15 23:20:49;;;;;;;18.60;8.40;;;;;;;5.56;50.10;99146.02;223541;182;137534;-68
2023/03/15 23:25:53;;;;;;;19.20;8.30;;;;;;;5.60;49.79;99156.58;223758;182;148481;-68
2023/03/15 23:31:03;;;;;;;22.30;8.70;;;;;;;5.57;49.83;99166.41;223565;182;138421;-68
2023/03/15 23:36:07;;;;;;;18.90;8.70;;;;;;;5.49;50.04;99166.70;223733;183;137365;-67
2023/03/15 23:41:11;;;;;;;22.10;9.00;;;;;;;5.50;50.19;99172.84;223582;183;148090;-68
2023/03/15 23:46:14;;;;;;;22.60;9.50;;;;;;;5.49;50.21;99178.17;223588;182;139942;-67
2023/03/15 23:51:18;;;;;;;19.80;8.30;;;;;;;5.51;50.19;99175.06;223486;182;137184;-69
2023/03/15 23:56:22;;;;;;;17.80;7.60;;;;;;;5.44;50.36;99177.09;223616;182;148075;-68
